Terminal Aerodrome Forecast
Issued by NWS

Current Version | Previous Version | Text Only | Print | Product List | Glossary On
Versions: 1 2 3 4 5 6 7 8 9 10
912
FTUS42 TJSJ 231720
TAFNCM
TAF
TNCM 231720Z 2318/2418 11012G22KT P6SM VCSH SCT019 BKN040 BKN100
     FM232300 09010KT P6SM FEW019 SCT040 SCT120
     FM240700 09008KT P6SM VCSH SCT018 BKN040
     FM241450 12014KT P6SM FEW022 SCT050 BKN100=

USA.gov is the U.S. government's official web portal to all federal, state and local government web resources and services.